Time;durP1;ratioP1;P1;durP2;ratioP2;P2;SDS_P1;SDS_P2;PMS_P1;PMS_P2;Temp;Humidity;BMP_temperature;BMP_pressure;BME280_temperature;BME280_humidity;BME280_pressure;Samples;Min_cycle;Max_cycle;Signal;HPM_P1;HPM_P2
2020/12/28 00:02:46;;;;;;;11.73;5.83;;;;;;;5.16;70.65;99674.25;5998345;29;20200;-78
2020/12/28 00:05:49;;;;;;;15.07;6.63;;;;;;;5.23;70.25;99707.50;5995674;29;20210;-78
2020/12/28 00:08:53;;;;;;;9.97;5.37;;;;;;;5.12;69.99;99702.72;6001938;29;20233;-78
2020/12/28 00:11:59;;;;;;;10.33;5.90;;;;;;;5.17;70.79;99692.09;6018514;29;20676;-77
2020/12/28 00:15:05;;;;;;;17.77;6.80;;;;;;;5.21;70.28;99704.19;6023243;29;20677;-77
2020/12/28 00:18:14;;;;;;;12.57;5.67;;;;;;;5.14;70.50;99697.94;6005792;29;20302;-79
2020/12/28 00:21:18;;;;;;;14.10;5.80;;;;;;;5.24;69.54;99676.72;6006691;29;20236;-77
2020/12/28 00:24:22;;;;;;;18.77;6.57;;;;;;;5.23;70.01;99702.94;5994704;29;20444;-77
2020/12/28 00:27:25;;;;;;;13.53;6.57;;;;;;;5.12;70.17;99689.19;5988789;29;20221;-77
2020/12/28 00:30:28;;;;;;;18.47;6.33;;;;;;;5.24;69.29;99692.97;5994882;29;20205;-78
2020/12/28 00:33:34;;;;;;;18.27;6.50;;;;;;;5.32;69.58;99681.88;5998516;29;20239;-78
2020/12/28 00:36:38;;;;;;;14.67;7.00;;;;;;;4.94;70.49;99670.91;6001274;29;20214;-77
2020/12/28 00:39:41;;;;;;;13.07;5.80;;;;;;;5.11;69.73;99690.25;5997036;29;20232;-77
2020/12/28 00:42:45;;;;;;;14.83;6.77;;;;;;;5.04;70.41;99677.56;5999472;29;20592;-78
2020/12/28 00:45:49;;;;;;;14.47;6.13;;;;;;;5.06;69.83;99674.66;5998409;29;20502;-77
2020/12/28 00:48:53;;;;;;;15.63;6.47;;;;;;;5.01;70.18;99685.25;5988702;29;20225;-76
2020/12/28 00:51:56;;;;;;;19.53;6.80;;;;;;;5.08;71.10;99678.81;6000620;29;20225;-76
2020/12/28 00:55:00;;;;;;;14.37;6.87;;;;;;;5.12;71.14;99678.38;5995802;29;20218;-78
2020/12/28 00:58:06;;;;;;;13.67;6.60;;;;;;;5.08;69.66;99684.22;5973316;29;20215;-78
2020/12/28 01:01:12;;;;;;;11.73;6.30;;;;;;;5.06;70.85;99675.47;5996161;29;20710;-78
2020/12/28 01:04:22;;;;;;;11.10;5.90;;;;;;;5.04;70.21;99677.56;5986879;29;20210;-79
2020/12/28 01:07:30;;;;;;;11.37;5.90;;;;;;;5.19;69.12;99668.41;6002472;29;20710;-78
2020/12/28 01:10:43;;;;;;;13.10;6.13;;;;;;;5.15;69.43;99683.38;5998465;29;20284;-78
2020/12/28 01:13:48;;;;;;;19.47;6.00;;;;;;;4.98;71.09;99678.41;5998183;29;20237;-78
2020/12/28 01:16:52;;;;;;;13.50;5.63;;;;;;;5.15;70.24;99688.78;6004662;29;20333;-78
2020/12/28 01:19:57;;;;;;;13.13;5.80;;;;;;;5.24;69.38;99687.53;6035383;29;20196;-79
2020/12/28 01:23:00;;;;;;;10.63;5.73;;;;;;;5.11;69.39;99674.03;5989054;29;20671;-78
2020/12/28 01:26:12;;;;;;;11.27;5.30;;;;;;;5.27;68.94;99681.69;5981770;29;20209;-78
2020/12/28 01:29:20;;;;;;;10.33;5.40;;;;;;;5.22;69.38;99684.19;5994381;29;20237;-78
2020/12/28 01:32:27;;;;;;;9.87;5.10;;;;;;;5.37;69.81;99688.34;5983095;29;20207;-78
2020/12/28 01:35:52;;;;;;;10.03;5.13;;;;;;;5.21;70.66;99671.75;6009791;29;20318;-79
2020/12/28 01:38:56;;;;;;;11.70;5.13;;;;;;;5.25;70.43;99684.63;5997289;29;20225;-79
2020/12/28 01:42:01;;;;;;;6.30;4.50;;;;;;;5.23;70.30;99669.66;6012877;29;20205;-78
2020/12/28 01:45:07;;;;;;;9.30;4.77;;;;;;;5.08;69.95;99678.81;5985676;29;20228;-79
2020/12/28 01:48:20;;;;;;;7.53;4.90;;;;;;;4.95;70.31;99662.63;5984587;29;20268;-79
2020/12/28 01:51:26;;;;;;;10.80;4.77;;;;;;;4.93;70.39;99667.38;5995490;29;20242;-77
2020/12/28 01:54:30;;;;;;;11.40;5.37;;;;;;;5.13;69.52;99669.25;6007309;29;20229;-79
2020/12/28 01:57:34;;;;;;;7.13;4.93;;;;;;;5.07;70.43;99666.34;6016908;29;20737;-78
2020/12/28 02:00:41;;;;;;;12.37;5.13;;;;;;;5.13;70.25;99674.66;6005780;29;20216;-77
2020/12/28 02:03:53;;;;;;;16.93;5.70;;;;;;;5.09;70.81;99674.22;6002588;29;20232;-77
2020/12/28 02:07:10;;;;;;;10.20;5.10;;;;;;;4.92;71.16;99633.31;6016028;29;20221;-79
2020/12/28 02:10:13;;;;;;;7.70;4.97;;;;;;;5.11;71.22;99671.34;6006363;29;20241;-78
2020/12/28 02:13:19;;;;;;;15.40;5.50;;;;;;;5.15;71.54;99677.97;5998219;29;20573;-78
2020/12/28 02:16:42;;;;;;;11.83;4.70;;;;;;;5.39;69.99;99664.59;6003172;29;20363;-78
2020/12/28 02:19:48;;;;;;;8.80;4.87;;;;;;;5.16;71.07;99672.38;6009027;29;20245;-79
2020/12/28 02:22:54;;;;;;;9.53;4.87;;;;;;;5.34;70.65;99663.59;6006256;29;20217;-79
2020/12/28 02:25:57;;;;;;;5.43;4.60;;;;;;;5.39;70.90;99658.38;6019615;29;20208;-79
2020/12/28 02:29:01;;;;;;;9.23;4.53;;;;;;;5.27;72.25;99670.88;5999655;29;20742;-79
2020/12/28 02:32:06;;;;;;;14.00;4.90;;;;;;;5.14;73.13;99660.06;6008059;29;20212;-77
2020/12/28 02:35:35;;;;;;;13.70;5.00;;;;;;;5.30;71.78;99659.63;5998827;29;20224;-77
2020/12/28 02:38:39;;;;;;;7.13;4.83;;;;;;;5.05;73.19;99657.63;6005330;29;20221;-78
2020/12/28 02:41:43;;;;;;;7.30;4.93;;;;;;;5.26;72.84;99658.41;6019985;29;20229;-79
2020/12/28 02:45:06;;;;;;;12.87;5.53;;;;;;;5.29;72.87;99663.41;6001276;29;20209;-78
2020/12/28 02:48:33;;;;;;;13.10;4.87;;;;;;;5.27;73.55;99670.88;5999878;29;20226;-78
2020/12/28 02:51:56;;;;;;;12.03;4.90;;;;;;;5.20;73.60;99675.47;5989276;29;20235;-78
2020/12/28 02:55:18;;;;;;;10.67;5.27;;;;;;;5.16;73.00;99693.16;6001047;29;20308;-77
2020/12/28 02:58:40;;;;;;;6.80;4.97;;;;;;;5.11;72.75;99687.56;5997523;29;20326;-77
2020/12/28 03:02:02;;;;;;;5.93;4.60;;;;;;;5.16;71.73;99679.66;6001723;29;20658;-78
2020/12/28 03:05:24;;;;;;;8.43;5.43;;;;;;;5.34;71.56;99677.13;5993160;29;20212;-79
2020/12/28 03:08:47;;;;;;;8.27;5.30;;;;;;;5.13;72.73;99696.28;5965877;29;20361;-79
2020/12/28 03:12:11;;;;;;;10.03;5.27;;;;;;;5.19;72.68;99684.66;5996919;29;20206;-78
2020/12/28 03:15:34;;;;;;;10.20;5.23;;;;;;;5.23;73.36;99680.47;5985383;29;20689;-78
2020/12/28 03:18:56;;;;;;;18.47;5.63;;;;;;;5.33;72.94;99678.16;5999884;29;20218;-79
2020/12/28 03:22:18;;;;;;;10.03;5.03;;;;;;;5.35;73.53;99697.69;6000457;29;20206;-77
2020/12/28 03:25:39;;;;;;;9.30;5.00;;;;;;;5.39;72.88;99685.44;5996213;29;20297;-79
2020/12/28 03:29:02;;;;;;;11.03;5.10;;;;;;;5.47;72.18;99693.31;6005689;29;20701;-78
2020/12/28 03:32:24;;;;;;;7.67;5.30;;;;;;;5.41;73.55;99683.34;6021794;29;20269;-79
2020/12/28 03:35:50;;;;;;;8.17;4.63;;;;;;;5.34;73.44;99666.31;6008165;29;20245;-78
2020/12/28 03:39:12;;;;;;;12.00;5.23;;;;;;;5.26;73.40;99680.06;6004874;29;20220;-78
2020/12/28 03:42:35;;;;;;;14.13;5.20;;;;;;;5.22;73.78;99657.16;6005074;29;20300;-79
2020/12/28 03:45:57;;;;;;;9.83;4.97;;;;;;;5.16;74.50;99671.53;6005155;29;20293;-78
2020/12/28 03:49:19;;;;;;;6.23;4.63;;;;;;;5.14;74.72;99687.94;6010405;29;20216;-78
2020/12/28 03:52:46;;;;;;;11.20;5.63;;;;;;;5.32;73.55;99652.97;6000434;29;20217;-79
2020/12/28 03:56:08;;;;;;;9.23;5.20;;;;;;;5.36;73.69;99672.34;6002643;29;20251;-79
2020/12/28 03:59:30;;;;;;;10.40;5.33;;;;;;;5.35;73.73;99674.19;6003995;29;20315;-78
2020/12/28 04:02:54;;;;;;;9.90;4.73;;;;;;;5.26;74.02;99663.81;6005666;29;20226;-79
2020/12/28 04:06:16;;;;;;;13.20;5.07;;;;;;;5.30;74.47;99675.88;6000320;29;20590;-78
2020/12/28 04:09:39;;;;;;;8.67;4.77;;;;;;;5.33;74.08;99654.66;6001845;29;20659;-78
2020/12/28 04:13:15;;;;;;;11.13;4.83;;;;;;;5.38;73.85;99667.53;5994146;29;20565;-78
2020/12/28 04:16:19;;;;;;;7.30;4.77;;;;;;;5.34;73.68;99671.72;5999423;29;20351;-78
2020/12/28 04:19:23;;;;;;;7.40;4.73;;;;;;;5.32;73.46;99674.63;5999579;29;20213;-78
2020/12/28 04:22:27;;;;;;;16.07;6.67;;;;;;;5.17;74.26;99671.31;5987384;29;20577;-78
2020/12/28 04:25:31;;;;;;;7.40;5.03;;;;;;;5.16;73.45;99647.22;6002562;29;20208;-78
2020/12/28 04:28:35;;;;;;;9.13;4.70;;;;;;;5.08;74.07;99662.59;6001521;29;20245;-79
2020/12/28 04:31:39;;;;;;;10.77;5.27;;;;;;;5.12;74.31;99678.38;5996738;29;20209;-78
2020/12/28 04:34:43;;;;;;;9.73;5.67;;;;;;;5.04;74.75;99671.31;6005408;29;20210;-78
2020/12/28 04:37:46;;;;;;;10.67;5.50;;;;;;;5.06;74.99;99675.47;6022301;29;20278;-78
2020/12/28 04:40:51;;;;;;;11.17;5.07;;;;;;;4.90;74.96;99654.31;6005431;29;20288;-78
2020/12/28 04:43:54;;;;;;;8.03;5.17;;;;;;;5.00;75.26;99687.16;5995970;29;20206;-79
2020/12/28 04:46:57;;;;;;;8.10;5.03;;;;;;;5.01;76.16;99679.84;6010085;29;20688;-78
2020/12/28 04:50:03;;;;;;;12.80;5.80;;;;;;;5.05;74.91;99663.03;6002579;29;20283;-78
2020/12/28 04:53:11;;;;;;;9.10;5.20;;;;;;;5.05;75.53;99662.19;5998845;29;20239;-78
2020/12/28 04:56:14;;;;;;;7.77;5.07;;;;;;;5.07;74.90;99660.94;5995723;29;20243;-78
2020/12/28 04:59:18;;;;;;;9.13;5.20;;;;;;;5.11;75.06;99665.94;6001245;29;20201;-78
2020/12/28 05:02:22;;;;;;;10.80;5.37;;;;;;;5.04;75.98;99671.31;6005881;29;20695;-77
2020/12/28 05:05:26;;;;;;;6.77;4.87;;;;;;;5.04;75.49;99666.75;6005861;29;20217;-77
2020/12/28 05:08:30;;;;;;;10.90;5.77;;;;;;;5.01;76.25;99672.56;6004357;29;20283;-77
2020/12/28 05:11:33;;;;;;;18.97;5.70;;;;;;;5.03;76.60;99680.50;5997941;29;20201;-77
2020/12/28 05:14:37;;;;;;;14.27;5.73;;;;;;;5.02;76.61;99668.00;6009694;29;20210;-77
2020/12/28 05:17:41;;;;;;;12.90;5.40;;;;;;;4.88;76.65;99656.38;6007612;29;20582;-78
2020/12/28 05:20:46;;;;;;;7.20;6.10;;;;;;;4.95;76.48;99668.03;6022143;29;20502;-78
2020/12/28 05:23:50;;;;;;;9.07;5.87;;;;;;;5.02;76.76;99679.66;6010201;29;20408;-78
2020/12/28 05:26:55;;;;;;;6.57;5.07;;;;;;;5.02;76.85;99687.78;6007708;29;20214;-79
2020/12/28 05:29:59;;;;;;;9.43;5.30;;;;;;;5.12;76.82;99681.94;5999633;29;20253;-79
2020/12/28 05:33:03;;;;;;;8.80;5.50;;;;;;;5.13;76.65;99682.78;6005182;29;20201;-76
2020/12/28 05:36:12;;;;;;;7.83;4.97;;;;;;;5.16;76.11;99690.47;5992393;29;20211;-78
2020/12/28 05:39:20;;;;;;;6.47;5.87;;;;;;;5.13;76.29;99680.06;6000407;29;20224;-79
2020/12/28 05:42:24;;;;;;;6.17;5.33;;;;;;;5.01;76.85;99677.16;6020341;29;20196;-81
2020/12/28 05:45:28;;;;;;;11.80;5.90;;;;;;;4.89;77.13;99679.66;6010845;29;20236;-78
2020/12/28 05:48:36;;;;;;;14.90;5.33;;;;;;;5.01;77.76;99702.31;6012899;29;20317;-79
2020/12/28 05:51:40;;;;;;;10.63;5.80;;;;;;;5.03;77.01;99708.34;6005180;29;20235;-79
2020/12/28 05:54:43;;;;;;;9.80;5.63;;;;;;;5.12;77.40;99716.25;5999354;29;20209;-77
2020/12/28 05:57:47;;;;;;;9.67;5.80;;;;;;;5.27;76.80;99708.72;6001304;29;20251;-78
2020/12/28 06:00:50;;;;;;;7.63;5.37;;;;;;;5.15;77.46;99721.22;5999211;29;20230;-77
2020/12/28 06:04:00;;;;;;;9.17;5.50;;;;;;;5.29;76.75;99706.69;5999304;29;20249;-77
2020/12/28 06:07:05;;;;;;;6.63;5.50;;;;;;;5.26;77.27;99717.91;5995812;29;20212;-78
2020/12/28 06:10:12;;;;;;;10.50;5.83;;;;;;;5.33;76.56;99718.72;6011194;29;20224;-77
2020/12/28 06:13:24;;;;;;;7.93;5.70;;;;;;;5.30;76.51;99716.44;6007732;29;20202;-76
2020/12/28 06:16:27;;;;;;;9.43;5.80;;;;;;;5.23;77.26;99724.56;6011841;29;20210;-77
2020/12/28 06:19:31;;;;;;;9.83;5.27;;;;;;;5.27;76.90;99708.72;6005204;29;20206;-76
2020/12/28 06:22:35;;;;;;;7.13;5.47;;;;;;;5.28;76.77;99705.00;6013019;29;20204;-76
2020/12/28 06:25:39;;;;;;;11.00;5.63;;;;;;;5.38;76.69;99710.81;6002403;29;20211;-79
2020/12/28 06:28:42;;;;;;;11.47;5.80;;;;;;;5.45;76.20;99722.44;6001447;29;20279;-77
2020/12/28 06:31:45;;;;;;;11.47;6.60;;;;;;;5.42;76.62;99725.56;5999449;29;20212;-77
2020/12/28 06:35:03;;;;;;;11.97;5.30;;;;;;;5.34;77.48;99720.41;5994552;29;20218;-79
2020/12/28 06:38:09;;;;;;;10.77;5.70;;;;;;;5.31;77.63;99727.06;5988265;29;20649;-77
2020/12/28 06:41:24;;;;;;;7.63;5.30;;;;;;;5.19;78.24;99708.97;6004266;29;20589;-78
2020/12/28 06:44:28;;;;;;;14.67;5.93;;;;;;;5.12;78.18;99732.47;5987817;29;20691;-77
2020/12/28 06:47:31;;;;;;;12.50;6.30;;;;;;;5.21;78.08;99725.81;6010483;29;20270;-79
2020/12/28 06:50:35;;;;;;;9.23;5.77;;;;;;;5.22;77.87;99743.69;6019111;29;20248;-78
2020/12/28 06:53:39;;;;;;;9.43;5.17;;;;;;;5.13;78.51;99748.50;6000320;29;20210;-77
2020/12/28 06:56:43;;;;;;;10.67;5.93;;;;;;;5.14;78.00;99746.59;5997329;29;20319;-76
2020/12/28 06:59:48;;;;;;;9.93;4.90;;;;;;;5.18;77.74;99747.88;5988081;29;20210;-77
2020/12/28 07:02:53;;;;;;;6.20;5.20;;;;;;;5.21;77.33;99753.69;5996430;29;20209;-77
2020/12/28 07:06:01;;;;;;;7.40;5.57;;;;;;;5.25;77.00;99754.09;6004675;29;20293;-77
2020/12/28 07:09:07;;;;;;;7.27;5.07;;;;;;;5.15;77.84;99748.28;6002750;29;20230;-77
2020/12/28 07:12:11;;;;;;;7.47;5.30;;;;;;;5.30;77.23;99751.59;6004125;29;20242;-78
2020/12/28 07:15:17;;;;;;;9.97;5.57;;;;;;;5.32;77.21;99760.31;5997231;29;20213;-78
2020/12/28 07:18:25;;;;;;;9.10;5.23;;;;;;;5.36;77.23;99767.00;6007471;29;20292;-78
2020/12/28 07:21:31;;;;;;;8.10;5.33;;;;;;;5.25;78.90;99754.09;6004289;29;20313;-78
2020/12/28 07:24:34;;;;;;;8.50;5.60;;;;;;;5.26;78.67;99772.81;5999379;29;20210;-78
2020/12/28 07:27:39;;;;;;;8.10;5.43;;;;;;;5.27;79.49;99777.19;6007843;29;20229;-79
2020/12/28 07:30:42;;;;;;;7.97;5.70;;;;;;;5.10;79.19;99745.38;6004994;29;20229;-78
2020/12/28 07:33:53;;;;;;;8.53;5.70;;;;;;;5.17;80.43;99784.88;6000801;29;20577;-78
2020/12/28 07:36:57;;;;;;;7.87;5.23;;;;;;;5.11;81.15;99787.59;6006418;29;20209;-78
2020/12/28 07:40:00;;;;;;;9.40;6.07;;;;;;;5.06;80.96;99799.84;6004767;29;20205;-78
2020/12/28 07:43:08;;;;;;;10.57;6.53;;;;;;;5.25;80.85;99800.06;6010957;29;20204;-78
2020/12/28 07:46:20;;;;;;;15.73;5.90;;;;;;;4.96;81.27;99772.38;5996989;29;20627;-78
2020/12/28 07:49:25;;;;;;;18.63;6.37;;;;;;;4.93;82.04;99801.72;5994619;29;20222;-77
2020/12/28 07:52:32;;;;;;;14.47;6.33;;;;;;;4.88;83.08;99802.31;5991915;29;20782;-78
2020/12/28 07:55:42;;;;;;;12.30;6.30;;;;;;;4.95;82.78;99811.28;6010264;29;20237;-77
2020/12/28 07:58:54;;;;;;;13.20;7.07;;;;;;;5.02;83.46;99812.13;6000233;29;20298;-78
2020/12/28 08:02:01;;;;;;;8.93;5.93;;;;;;;5.03;83.17;99815.66;5999676;29;20665;-77
2020/12/28 08:05:07;;;;;;;9.17;6.50;;;;;;;5.02;82.89;99809.41;5997871;29;20279;-78
2020/12/28 08:08:23;;;;;;;11.87;6.40;;;;;;;5.04;82.69;99801.94;5997056;29;20420;-78
2020/12/28 08:11:29;;;;;;;9.93;6.20;;;;;;;4.96;82.83;99821.03;6004633;29;20226;-78
2020/12/28 08:14:33;;;;;;;10.50;6.37;;;;;;;5.01;82.86;99818.56;5981922;29;20209;-78
2020/12/28 08:17:36;;;;;;;11.50;6.40;;;;;;;5.14;82.61;99816.88;5995519;29;20821;-79
2020/12/28 08:20:40;;;;;;;11.30;6.40;;;;;;;5.06;82.70;99815.22;6004840;29;20219;-77
2020/12/28 08:23:50;;;;;;;18.73;6.40;;;;;;;5.03;83.20;99821.06;5995958;29;20218;-77
2020/12/28 08:26:55;;;;;;;17.20;6.40;;;;;;;5.15;82.50;99821.28;6001102;29;20206;-79
2020/12/28 08:30:00;;;;;;;10.37;5.87;;;;;;;5.13;82.84;99834.16;5999659;29;20218;-78
2020/12/28 08:33:05;;;;;;;8.23;6.77;;;;;;;5.06;84.06;99832.28;5993273;29;20218;-76
2020/12/28 08:36:11;;;;;;;9.83;6.20;;;;;;;4.92;84.08;99841.41;6005366;29;20727;-79
2020/12/28 08:39:17;;;;;;;11.23;6.33;;;;;;;5.10;82.98;99842.69;6002450;29;20210;-78
2020/12/28 08:42:31;;;;;;;11.83;6.83;;;;;;;4.93;83.93;99832.25;5999263;29;20539;-77
2020/12/28 08:45:35;;;;;;;12.87;6.97;;;;;;;4.98;84.23;99845.97;6007881;29;20294;-78
2020/12/28 08:48:42;;;;;;;12.10;6.60;;;;;;;4.93;84.89;99843.06;5999039;29;20205;-78
2020/12/28 08:51:46;;;;;;;11.80;6.40;;;;;;;4.93;84.96;99848.47;6004503;29;21069;-78
2020/12/28 08:54:55;;;;;;;9.73;6.40;;;;;;;5.02;84.84;99852.66;6009015;29;20204;-77
2020/12/28 08:57:59;;;;;;;13.80;7.20;;;;;;;4.88;85.37;99856.34;6000786;29;20335;-79
2020/12/28 09:01:04;;;;;;;10.23;6.70;;;;;;;4.87;86.23;99849.31;6018150;29;20199;-77
2020/12/28 09:04:08;;;;;;;14.10;6.97;;;;;;;4.80;86.04;99832.22;5986022;29;20254;-77
2020/12/28 09:07:11;;;;;;;14.90;6.93;;;;;;;4.82;86.33;99851.78;5999821;29;20299;-78
2020/12/28 09:10:17;;;;;;;10.83;6.63;;;;;;;4.80;85.97;99858.44;5989425;29;20621;-77
2020/12/28 09:13:21;;;;;;;13.43;6.90;;;;;;;4.75;86.84;99861.72;6000524;29;20216;-78
2020/12/28 09:16:25;;;;;;;13.40;6.73;;;;;;;4.82;86.66;99835.56;5987540;29;20685;-78
2020/12/28 09:19:29;;;;;;;9.23;6.77;;;;;;;4.80;86.06;99832.22;6003617;29;20584;-78
2020/12/28 09:22:33;;;;;;;14.00;7.00;;;;;;;4.90;86.40;99865.13;5992055;29;20212;-77
2020/12/28 09:25:37;;;;;;;14.97;7.37;;;;;;;4.95;86.63;99857.22;5997622;29;20265;-78
2020/12/28 09:28:41;;;;;;;12.07;6.97;;;;;;;4.78;86.23;99855.91;5997394;29;20263;-78
2020/12/28 09:31:44;;;;;;;9.37;6.50;;;;;;;4.94;85.96;99855.56;6003128;29;20237;-78
2020/12/28 09:34:47;;;;;;;10.30;6.43;;;;;;;4.90;86.61;99865.13;6002706;29;20549;-77
2020/12/28 09:37:50;;;;;;;14.20;6.33;;;;;;;4.83;86.81;99858.84;5998843;29;20261;-77
2020/12/28 09:40:54;;;;;;;9.80;6.33;;;;;;;4.96;86.35;99858.03;6005007;29;20205;-78
2020/12/28 09:43:58;;;;;;;13.07;6.53;;;;;;;4.84;87.66;99859.69;5999272;29;20637;-77
2020/12/28 09:47:01;;;;;;;15.20;6.63;;;;;;;4.83;86.87;99847.19;6001164;29;20274;-77
2020/12/28 09:50:05;;;;;;;11.10;6.83;;;;;;;4.88;86.70;99861.75;6010753;29;20578;-77
2020/12/28 09:53:16;;;;;;;10.17;7.50;;;;;;;4.87;86.81;99859.28;5994865;29;20205;-76
2020/12/28 09:56:19;;;;;;;11.90;6.60;;;;;;;4.86;85.83;99854.91;5995412;29;20243;-77
2020/12/28 09:59:23;;;;;;;9.23;6.40;;;;;;;4.82;86.14;99857.19;6004669;29;20210;-78
2020/12/28 10:02:28;;;;;;;9.13;6.13;;;;;;;4.72;87.69;99856.75;6002813;29;20291;-77
2020/12/28 10:05:32;;;;;;;14.47;6.73;;;;;;;4.74;86.53;99860.06;6014283;29;20205;-79
2020/12/28 10:08:37;;;;;;;7.57;5.90;;;;;;;4.71;86.28;99857.78;6016335;29;20288;-76
2020/12/28 10:11:40;;;;;;;13.63;6.80;;;;;;;4.59;88.58;99862.09;5993739;29;20236;-77
2020/12/28 10:14:45;;;;;;;13.57;6.53;;;;;;;4.52;87.79;99847.72;6004832;29;20202;-76
2020/12/28 10:18:10;;;;;;;12.07;6.50;;;;;;;4.55;88.39;99855.41;5997261;29;20211;-76
2020/12/28 10:21:13;;;;;;;7.13;6.40;;;;;;;4.52;89.11;99850.41;5995253;29;20212;-77
2020/12/28 10:24:19;;;;;;;10.77;6.53;;;;;;;4.63;88.03;99847.13;5997854;29;20263;-79
2020/12/28 10:27:24;;;;;;;7.27;6.17;;;;;;;4.44;88.19;99815.50;6003736;29;20696;-79
2020/12/28 10:30:28;;;;;;;8.70;6.30;;;;;;;4.64;87.89;99816.41;6002154;29;20255;-78
2020/12/28 10:33:32;;;;;;;12.03;6.20;;;;;;;4.64;87.85;99842.56;6008271;29;20676;-78
2020/12/28 10:36:36;;;;;;;13.67;6.57;;;;;;;4.62;87.62;99834.69;6007217;29;20224;-79
2020/12/28 10:39:43;;;;;;;6.63;5.90;;;;;;;4.37;88.57;99847.88;6000495;29;20428;-78
2020/12/28 10:42:46;;;;;;;10.93;6.73;;;;;;;4.50;87.82;99836.28;5999352;29;20230;-77
2020/12/28 10:45:50;;;;;;;11.90;6.43;;;;;;;4.47;87.73;99830.47;5999849;29;20818;-78
2020/12/28 10:48:54;;;;;;;10.37;6.60;;;;;;;4.52;87.20;99834.22;6004966;29;20640;-78
2020/12/28 10:51:57;;;;;;;9.27;5.93;;;;;;;4.50;86.78;99830.88;6000820;29;20251;-78
2020/12/28 10:55:00;;;;;;;6.77;5.87;;;;;;;4.49;85.41;99807.63;6005408;29;20217;-78
2020/12/28 10:58:07;;;;;;;13.77;6.37;;;;;;;4.61;85.95;99833.00;5989705;29;20320;-78
2020/12/28 11:01:15;;;;;;;11.37;6.40;;;;;;;4.54;86.38;99821.34;6003333;29;20250;-78
2020/12/28 11:04:19;;;;;;;13.97;7.87;;;;;;;4.68;85.90;99833.84;5994546;29;20201;-78
2020/12/28 11:07:22;;;;;;;13.17;5.97;;;;;;;4.64;85.85;99821.81;6006197;29;20240;-79
2020/12/28 11:10:26;;;;;;;7.70;5.83;;;;;;;4.51;85.53;99826.31;6007982;29;20224;-80
2020/12/28 11:13:30;;;;;;;9.17;6.30;;;;;;;4.60;85.85;99809.72;6027582;29;20565;-78
2020/12/28 11:16:34;;;;;;;8.60;6.10;;;;;;;4.47;86.40;99820.47;6000316;29;20208;-77
2020/12/28 11:19:38;;;;;;;6.67;5.80;;;;;;;4.47;86.48;99809.66;6000906;29;20285;-79
2020/12/28 11:22:41;;;;;;;7.57;5.77;;;;;;;4.54;85.48;99802.44;6002637;29;20215;-78
2020/12/28 11:25:44;;;;;;;8.30;5.70;;;;;;;4.43;85.55;99786.81;5990885;29;20224;-77
2020/12/28 11:28:48;;;;;;;8.57;5.83;;;;;;;4.45;86.13;99811.75;5999549;29;20214;-77
2020/12/28 11:31:53;;;;;;;9.73;6.17;;;;;;;4.58;86.06;99803.69;5998971;29;20251;-78
2020/12/28 11:34:56;;;;;;;7.33;6.40;;;;;;;4.56;85.87;99797.66;6004461;29;20808;-78
2020/12/28 11:38:01;;;;;;;7.57;5.87;;;;;;;4.52;85.87;99804.50;5994713;29;20213;-76
2020/12/28 11:41:05;;;;;;;7.93;5.93;;;;;;;4.30;86.04;99781.38;5992845;29;20214;-79
2020/12/28 11:44:11;;;;;;;12.07;6.40;;;;;;;4.55;85.84;99801.41;5996201;29;20213;-79
2020/12/28 11:47:15;;;;;;;8.97;5.90;;;;;;;4.46;86.17;99816.13;6006474;29;20211;-78
2020/12/28 11:50:20;;;;;;;7.20;5.97;;;;;;;4.52;85.59;99803.69;6004816;29;20245;-78
2020/12/28 11:53:23;;;;;;;6.40;5.87;;;;;;;4.63;85.29;99801.22;5996919;29;20216;-77
2020/12/28 11:56:27;;;;;;;9.50;5.47;;;;;;;4.54;84.98;99813.25;5994452;29;20689;-76
2020/12/28 11:59:30;;;;;;;8.67;5.63;;;;;;;4.62;85.62;99801.44;5993893;29;20629;-79
2020/12/28 12:02:35;;;;;;;8.80;5.80;;;;;;;4.57;85.97;99793.91;5996223;29;20215;-79
2020/12/28 12:05:39;;;;;;;8.50;5.90;;;;;;;4.60;85.11;99788.09;6000487;29;20220;-78
2020/12/28 12:12:00;;;;;;;6.73;6.13;;;;;;;4.60;85.32;99793.50;6005240;29;20276;-79
2020/12/28 12:15:04;;;;;;;9.43;5.70;;;;;;;4.56;85.94;99803.06;6000046;29;20215;-78
2020/12/28 12:18:20;;;;;;;7.03;5.60;;;;;;;4.62;85.49;99802.28;6029221;29;20327;-78
2020/12/28 12:21:23;;;;;;;12.87;6.00;;;;;;;4.55;85.42;99779.78;6012589;29;20628;-78
2020/12/28 12:24:27;;;;;;;10.70;6.07;;;;;;;4.54;86.18;99813.25;6001532;29;20973;-78
2020/12/28 12:27:31;;;;;;;7.10;5.80;;;;;;;4.57;85.82;99793.91;6001555;29;20561;-77
2020/12/28 12:30:47;;;;;;;8.60;5.90;;;;;;;4.51;86.48;99778.53;5999435;29;20889;-76
2020/12/28 12:33:51;;;;;;;11.10;6.57;;;;;;;4.60;85.71;99809.72;5995790;29;20207;-77
2020/12/28 12:36:55;;;;;;;8.27;5.80;;;;;;;4.48;86.98;99781.63;6010104;29;20546;-78
2020/12/28 12:39:58;;;;;;;10.83;6.10;;;;;;;4.68;86.16;99796.03;6010778;29;20391;-79
2020/12/28 12:43:01;;;;;;;8.03;5.70;;;;;;;4.65;86.74;99796.44;6004304;29;20468;-78
2020/12/28 12:46:07;;;;;;;5.70;5.13;;;;;;;4.54;86.85;99790.81;5992019;29;20219;-79
2020/12/28 12:49:12;;;;;;;7.33;6.00;;;;;;;4.59;86.64;99791.88;5996735;29;20217;-78
2020/12/28 12:52:18;;;;;;;9.70;5.90;;;;;;;4.63;86.94;99787.72;5998608;29;20661;-79
2020/12/28 12:55:22;;;;;;;9.57;5.57;;;;;;;4.48;87.79;99778.09;6009441;29;20212;-79
2020/12/28 12:58:25;;;;;;;13.30;6.00;;;;;;;4.39;90.15;99801.78;5986813;29;20240;-77
2020/12/28 13:01:29;;;;;;;8.50;6.57;;;;;;;4.48;88.70;99795.16;6000667;29;20225;-78
2020/12/28 13:04:34;;;;;;;8.93;6.77;;;;;;;4.52;88.29;99784.78;5996978;29;20204;-78
2020/12/28 13:07:39;;;;;;;7.87;5.60;;;;;;;4.46;88.72;99783.72;6004020;29;20291;-78
2020/12/28 13:10:44;;;;;;;12.83;7.17;;;;;;;4.47;89.31;99785.38;6002225;29;20220;-78
2020/12/28 13:13:47;;;;;;;8.07;6.77;;;;;;;4.51;88.90;99778.53;5998089;29;20217;-76
2020/12/28 13:16:50;;;;;;;10.33;6.77;;;;;;;4.59;88.93;99770.25;6001923;29;20324;-78
2020/12/28 13:19:54;;;;;;;7.53;6.60;;;;;;;4.66;88.31;99776.50;6002876;29;20350;-77
2020/12/28 13:22:58;;;;;;;11.63;6.80;;;;;;;4.69;88.09;99778.78;6015999;29;20216;-80
2020/12/28 13:26:01;;;;;;;8.93;6.27;;;;;;;4.68;87.99;99769.00;6009769;29;20291;-78
2020/12/28 13:29:05;;;;;;;11.10;6.90;;;;;;;4.60;88.35;99773.75;5999125;29;20231;-77
2020/12/28 13:32:10;;;;;;;8.73;6.63;;;;;;;4.55;87.77;99765.44;6002615;29;20625;-76
2020/12/28 13:35:20;;;;;;;10.60;6.47;;;;;;;4.63;87.65;99766.09;6005529;29;20281;-79
2020/12/28 13:38:27;;;;;;;10.00;7.07;;;;;;;4.51;87.85;99773.13;6014230;29;20207;-78
2020/12/28 13:41:31;;;;;;;8.17;6.90;;;;;;;4.46;88.16;99759.41;6012246;29;20211;-78
2020/12/28 13:44:35;;;;;;;7.87;6.70;;;;;;;4.44;88.05;99764.19;6006212;29;20215;-78
2020/12/28 13:47:38;;;;;;;10.23;7.47;;;;;;;4.49;88.49;99752.78;6010101;29;20692;-79
2020/12/28 13:50:42;;;;;;;11.80;7.73;;;;;;;4.46;88.24;99767.50;6005317;29;20243;-77
2020/12/28 13:53:46;;;;;;;11.60;7.40;;;;;;;4.45;87.56;99768.53;5997609;29;20659;-76
2020/12/28 13:56:53;;;;;;;15.43;7.70;;;;;;;4.27;88.12;99738.56;6005267;29;20244;-77
2020/12/28 14:00:15;;;;;;;8.23;6.70;;;;;;;4.43;87.27;99766.06;6003464;29;20460;-78
2020/12/28 14:03:30;;;;;;;8.73;7.10;;;;;;;4.53;86.83;99764.81;6002065;29;20234;-78
2020/12/28 14:06:35;;;;;;;9.60;7.30;;;;;;;4.52;86.74;99763.97;6003257;29;20292;-78
2020/12/28 14:09:38;;;;;;;11.87;7.20;;;;;;;4.51;86.75;99765.03;6007489;29;20214;-79
2020/12/28 14:12:41;;;;;;;13.93;7.80;;;;;;;4.49;86.92;99753.59;5997999;29;20220;-78
2020/12/28 14:15:44;;;;;;;8.97;7.07;;;;;;;4.44;86.67;99766.91;6004141;29;20211;-78
2020/12/28 14:18:48;;;;;;;13.60;7.40;;;;;;;4.44;87.20;99773.09;6004961;29;20225;-77
2020/12/28 14:21:53;;;;;;;12.87;6.83;;;;;;;4.52;86.68;99763.97;5986113;29;20302;-78
2020/12/28 14:24:57;;;;;;;8.43;6.80;;;;;;;4.36;87.14;99775.19;6006199;29;20211;-78
2020/12/28 14:28:00;;;;;;;12.23;7.67;;;;;;;4.43;86.91;99781.41;6002827;29;20212;-77
2020/12/28 14:31:08;;;;;;;11.07;7.30;;;;;;;4.60;86.35;99777.31;6019542;29;20217;-78
2020/12/28 14:34:14;;;;;;;12.80;8.50;;;;;;;4.46;87.98;99770.22;6003748;29;20210;-78
2020/12/28 14:37:19;;;;;;;9.70;7.13;;;;;;;4.41;86.87;99762.72;6009766;29;20209;-78
2020/12/28 14:40:22;;;;;;;9.50;7.23;;;;;;;4.48;87.23;99778.94;6003671;29;20299;-79
2020/12/28 14:43:25;;;;;;;8.30;6.63;;;;;;;4.45;86.34;99773.94;6014080;29;20226;-79
2020/12/28 14:46:29;;;;;;;8.17;6.83;;;;;;;4.45;86.63;99792.84;6007818;29;20213;-77
2020/12/28 14:49:32;;;;;;;14.23;6.73;;;;;;;4.48;86.45;99773.53;6005738;29;20214;-77